sensor_id;sensor_type;location;lat;lon;timestamp;temperature;humidity
52867;DHT22;38739;53.324;6.862;2023-09-07T00:00:13;20.90;99.90
52867;DHT22;38739;53.324;6.862;2023-09-07T00:02:39;20.80;99.90
52867;DHT22;38739;53.324;6.862;2023-09-07T00:05:08;20.80;99.90
52867;DHT22;38739;53.324;6.862;2023-09-07T00:07:34;20.70;99.90
52867;DHT22;38739;53.324;6.862;2023-09-07T00:10:00;20.70;99.90
52867;DHT22;38739;53.324;6.862;2023-09-07T00:12:27;20.70;99.90
52867;DHT22;38739;53.324;6.862;2023-09-07T00:14:53;20.60;99.90
52867;DHT22;38739;53.324;6.862;2023-09-07T00:17:20;20.60;99.90
52867;DHT22;38739;53.324;6.862;2023-09-07T00:19:46;20.60;99.90
52867;DHT22;38739;53.324;6.862;2023-09-07T00:22:14;20.50;99.90
52867;DHT22;38739;53.324;6.862;2023-09-07T00:24:40;20.50;99.90
52867;DHT22;38739;53.324;6.862;2023-09-07T00:27:06;20.40;99.90
52867;DHT22;38739;53.324;6.862;2023-09-07T00:29:34;20.40;99.90
52867;DHT22;38739;53.324;6.862;2023-09-07T00:32:00;20.30;99.90
52867;DHT22;38739;53.324;6.862;2023-09-07T00:34:26;20.30;99.90
52867;DHT22;38739;53.324;6.862;2023-09-07T00:36:52;20.30;99.90
52867;DHT22;38739;53.324;6.862;2023-09-07T00:39:17;20.20;99.90
52867;DHT22;38739;53.324;6.862;2023-09-07T00:41:43;20.20;99.90
52867;DHT22;38739;53.324;6.862;2023-09-07T00:44:09;20.10;99.90
52867;DHT22;38739;53.324;6.862;2023-09-07T00:46:35;20.10;99.90
52867;DHT22;38739;53.324;6.862;2023-09-07T00:49:02;20.00;99.90
52867;DHT22;38739;53.324;6.862;2023-09-07T00:51:30;20.00;99.90
52867;DHT22;38739;53.324;6.862;2023-09-07T00:53:56;19.90;99.90
52867;DHT22;38739;53.324;6.862;2023-09-07T00:56:22;19.90;99.90
52867;DHT22;38739;53.324;6.862;2023-09-07T00:58:48;19.80;99.90
52867;DHT22;38739;53.324;6.862;2023-09-07T01:01:14;19.80;99.90
52867;DHT22;38739;53.324;6.862;2023-09-07T01:03:40;19.80;99.90
52867;DHT22;38739;53.324;6.862;2023-09-07T01:06:16;19.80;99.90
52867;DHT22;38739;53.324;6.862;2023-09-07T01:08:46;19.80;99.90
52867;DHT22;38739;53.324;6.862;2023-09-07T01:11:18;19.70;99.90
52867;DHT22;38739;53.324;6.862;2023-09-07T01:13:45;19.70;99.90
52867;DHT22;38739;53.324;6.862;2023-09-07T01:16:13;19.60;99.90
52867;DHT22;38739;53.324;6.862;2023-09-07T01:18:42;19.50;99.90
52867;DHT22;38739;53.324;6.862;2023-09-07T01:21:09;19.50;99.90
52867;DHT22;38739;53.324;6.862;2023-09-07T01:23:39;19.40;99.90
52867;DHT22;38739;53.324;6.862;2023-09-07T01:26:08;19.30;99.90
52867;DHT22;38739;53.324;6.862;2023-09-07T01:28:34;19.30;99.90
52867;DHT22;38739;53.324;6.862;2023-09-07T01:31:00;19.20;99.90
52867;DHT22;38739;53.324;6.862;2023-09-07T01:33:29;19.20;99.90
52867;DHT22;38739;53.324;6.862;2023-09-07T01:35:55;19.20;99.90
52867;DHT22;38739;53.324;6.862;2023-09-07T01:38:21;19.10;99.90
52867;DHT22;38739;53.324;6.862;2023-09-07T01:40:46;19.00;99.90
52867;DHT22;38739;53.324;6.862;2023-09-07T01:43:12;19.00;99.90
52867;DHT22;38739;53.324;6.862;2023-09-07T01:45:38;18.90;99.90
52867;DHT22;38739;53.324;6.862;2023-09-07T01:48:08;18.90;99.90
52867;DHT22;38739;53.324;6.862;2023-09-07T01:50:35;18.80;99.90
52867;DHT22;38739;53.324;6.862;2023-09-07T01:53:01;18.80;99.90
52867;DHT22;38739;53.324;6.862;2023-09-07T01:55:28;18.70;99.90
52867;DHT22;38739;53.324;6.862;2023-09-07T01:57:54;18.70;99.90
52867;DHT22;38739;53.324;6.862;2023-09-07T02:00:20;18.60;99.90
52867;DHT22;38739;53.324;6.862;2023-09-07T02:02:46;18.60;99.90
52867;DHT22;38739;53.324;6.862;2023-09-07T02:05:11;18.50;99.90
52867;DHT22;38739;53.324;6.862;2023-09-07T02:07:38;18.40;99.90
52867;DHT22;38739;53.324;6.862;2023-09-07T02:10:04;18.40;99.90
52867;DHT22;38739;53.324;6.862;2023-09-07T02:12:30;18.30;99.90
52867;DHT22;38739;53.324;6.862;2023-09-07T02:14:56;18.30;99.90
52867;DHT22;38739;53.324;6.862;2023-09-07T02:17:21;18.20;99.90
52867;DHT22;38739;53.324;6.862;2023-09-07T02:19:47;18.20;99.90
52867;DHT22;38739;53.324;6.862;2023-09-07T02:22:13;18.20;99.90
52867;DHT22;38739;53.324;6.862;2023-09-07T02:24:39;18.10;99.90
52867;DHT22;38739;53.324;6.862;2023-09-07T02:27:04;18.10;99.90
52867;DHT22;38739;53.324;6.862;2023-09-07T02:29:30;18.00;99.90
52867;DHT22;38739;53.324;6.862;2023-09-07T02:31:55;18.00;99.90
52867;DHT22;38739;53.324;6.862;2023-09-07T02:34:23;17.90;99.90
52867;DHT22;38739;53.324;6.862;2023-09-07T02:36:48;17.90;99.90
52867;DHT22;38739;53.324;6.862;2023-09-07T02:39:14;17.90;99.90
52867;DHT22;38739;53.324;6.862;2023-09-07T02:41:40;17.80;99.90
52867;DHT22;38739;53.324;6.862;2023-09-07T02:44:06;17.80;99.90
52867;DHT22;38739;53.324;6.862;2023-09-07T02:46:31;17.80;99.90
52867;DHT22;38739;53.324;6.862;2023-09-07T02:48:57;17.70;99.90
52867;DHT22;38739;53.324;6.862;2023-09-07T02:51:24;17.70;99.90
52867;DHT22;38739;53.324;6.862;2023-09-07T02:53:50;17.70;99.90
52867;DHT22;38739;53.324;6.862;2023-09-07T02:56:16;17.60;99.90
52867;DHT22;38739;53.324;6.862;2023-09-07T02:58:42;17.60;99.90
52867;DHT22;38739;53.324;6.862;2023-09-07T03:01:07;17.60;99.90
52867;DHT22;38739;53.324;6.862;2023-09-07T03:03:34;17.50;99.90
52867;DHT22;38739;53.324;6.862;2023-09-07T03:06:11;17.50;99.90
52867;DHT22;38739;53.324;6.862;2023-09-07T03:08:41;17.40;99.90
52867;DHT22;38739;53.324;6.862;2023-09-07T03:11:07;17.40;99.90
52867;DHT22;38739;53.324;6.862;2023-09-07T03:13:34;17.40;99.90
52867;DHT22;38739;53.324;6.862;2023-09-07T03:16:01;17.30;99.90
52867;DHT22;38739;53.324;6.862;2023-09-07T03:18:29;17.30;99.90
52867;DHT22;38739;53.324;6.862;2023-09-07T03:20:57;17.30;99.90
52867;DHT22;38739;53.324;6.862;2023-09-07T03:23:23;17.30;99.90
52867;DHT22;38739;53.324;6.862;2023-09-07T03:25:49;17.30;99.90
52867;DHT22;38739;53.324;6.862;2023-09-07T03:28:14;17.20;99.90
52867;DHT22;38739;53.324;6.862;2023-09-07T03:30:40;17.20;99.90
52867;DHT22;38739;53.324;6.862;2023-09-07T03:33:06;17.20;99.90
52867;DHT22;38739;53.324;6.862;2023-09-07T03:35:32;17.10;99.90
52867;DHT22;38739;53.324;6.862;2023-09-07T03:37:58;17.10;99.90
52867;DHT22;38739;53.324;6.862;2023-09-07T03:40:24;17.10;99.90
52867;DHT22;38739;53.324;6.862;2023-09-07T03:42:50;17.10;99.90
52867;DHT22;38739;53.324;6.862;2023-09-07T03:45:15;17.10;99.90
52867;DHT22;38739;53.324;6.862;2023-09-07T03:47:41;17.10;99.90
52867;DHT22;38739;53.324;6.862;2023-09-07T03:50:08;17.00;99.90
52867;DHT22;38739;53.324;6.862;2023-09-07T03:52:33;17.00;99.90
52867;DHT22;38739;53.324;6.862;2023-09-07T03:55:00;17.10;99.90
52867;DHT22;38739;53.324;6.862;2023-09-07T03:57:26;17.10;99.90
52867;DHT22;38739;53.324;6.862;2023-09-07T03:59:52;17.20;99.90
52867;DHT22;38739;53.324;6.862;2023-09-07T04:02:18;17.20;99.90
52867;DHT22;38739;53.324;6.862;2023-09-07T04:04:54;17.30;99.90
52867;DHT22;38739;53.324;6.862;2023-09-07T04:07:21;17.30;99.90
52867;DHT22;38739;53.324;6.862;2023-09-07T04:09:46;17.40;99.90
52867;DHT22;38739;53.324;6.862;2023-09-07T04:12:12;17.40;99.90
52867;DHT22;38739;53.324;6.862;2023-09-07T04:14:38;17.50;99.90
52867;DHT22;38739;53.324;6.862;2023-09-07T04:17:05;17.50;99.90
52867;DHT22;38739;53.324;6.862;2023-09-07T04:19:30;17.50;99.90
52867;DHT22;38739;53.324;6.862;2023-09-07T04:21:57;17.60;99.90
52867;DHT22;38739;53.324;6.862;2023-09-07T04:24:23;17.70;99.90
52867;DHT22;38739;53.324;6.862;2023-09-07T04:26:49;17.70;99.90
52867;DHT22;38739;53.324;6.862;2023-09-07T04:29:15;17.80;99.90
52867;DHT22;38739;53.324;6.862;2023-09-07T04:31:41;17.80;99.90
52867;DHT22;38739;53.324;6.862;2023-09-07T04:34:07;17.80;99.90
52867;DHT22;38739;53.324;6.862;2023-09-07T04:36:33;17.80;99.90
52867;DHT22;38739;53.324;6.862;2023-09-07T04:38:59;17.80;99.90
52867;DHT22;38739;53.324;6.862;2023-09-07T04:41:25;17.90;99.90
52867;DHT22;38739;53.324;6.862;2023-09-07T04:43:50;17.80;99.90
52867;DHT22;38739;53.324;6.862;2023-09-07T04:46:16;17.80;99.90
52867;DHT22;38739;53.324;6.862;2023-09-07T04:48:42;17.80;99.90
52867;DHT22;38739;53.324;6.862;2023-09-07T04:51:09;17.80;99.90
52867;DHT22;38739;53.324;6.862;2023-09-07T04:53:37;17.80;99.90
52867;DHT22;38739;53.324;6.862;2023-09-07T04:56:04;17.80;99.90
52867;DHT22;38739;53.324;6.862;2023-09-07T04:58:31;17.90;99.90
52867;DHT22;38739;53.324;6.862;2023-09-07T05:01:04;17.80;99.90
52867;DHT22;38739;53.324;6.862;2023-09-07T05:03:30;17.80;99.90
52867;DHT22;38739;53.324;6.862;2023-09-07T05:05:56;17.80;99.90
52867;DHT22;38739;53.324;6.862;2023-09-07T05:08:23;17.70;99.90
52867;DHT22;38739;53.324;6.862;2023-09-07T05:10:55;17.70;99.90
52867;DHT22;38739;53.324;6.862;2023-09-07T05:13:21;17.70;99.90
52867;DHT22;38739;53.324;6.862;2023-09-07T05:15:50;17.70;99.90
52867;DHT22;38739;53.324;6.862;2023-09-07T05:18:17;17.70;99.90
52867;DHT22;38739;53.324;6.862;2023-09-07T05:20:43;17.70;99.90
52867;DHT22;38739;53.324;6.862;2023-09-07T05:23:20;17.70;99.90
52867;DHT22;38739;53.324;6.862;2023-09-07T05:25:56;17.70;99.90
52867;DHT22;38739;53.324;6.862;2023-09-07T05:28:22;17.70;99.90
52867;DHT22;38739;53.324;6.862;2023-09-07T05:30:48;17.70;99.90
52867;DHT22;38739;53.324;6.862;2023-09-07T05:33:15;17.60;99.90
52867;DHT22;38739;53.324;6.862;2023-09-07T05:35:41;17.60;99.90
52867;DHT22;38739;53.324;6.862;2023-09-07T05:38:08;17.60;99.90
52867;DHT22;38739;53.324;6.862;2023-09-07T05:40:38;17.70;99.90
52867;DHT22;38739;53.324;6.862;2023-09-07T05:43:05;17.70;99.90
52867;DHT22;38739;53.324;6.862;2023-09-07T05:45:33;17.70;99.90
52867;DHT22;38739;53.324;6.862;2023-09-07T05:47:59;17.70;99.90
52867;DHT22;38739;53.324;6.862;2023-09-07T05:50:25;17.80;99.90
52867;DHT22;38739;53.324;6.862;2023-09-07T05:52:51;17.80;99.90
52867;DHT22;38739;53.324;6.862;2023-09-07T05:55:17;17.80;99.90
52867;DHT22;38739;53.324;6.862;2023-09-07T05:57:42;17.90;99.90
52867;DHT22;38739;53.324;6.862;2023-09-07T06:00:09;17.90;99.90
52867;DHT22;38739;53.324;6.862;2023-09-07T06:02:34;18.00;99.90
52867;DHT22;38739;53.324;6.862;2023-09-07T06:05:01;18.10;99.90
52867;DHT22;38739;53.324;6.862;2023-09-07T06:07:27;18.10;99.90
52867;DHT22;38739;53.324;6.862;2023-09-07T06:09:53;18.20;99.90
52867;DHT22;38739;53.324;6.862;2023-09-07T06:12:18;18.30;99.90
52867;DHT22;38739;53.324;6.862;2023-09-07T06:14:45;18.50;99.90
52867;DHT22;38739;53.324;6.862;2023-09-07T06:17:12;18.60;99.90
52867;DHT22;38739;53.324;6.862;2023-09-07T06:19:37;18.70;99.90
52867;DHT22;38739;53.324;6.862;2023-09-07T06:22:04;18.80;99.90
52867;DHT22;38739;53.324;6.862;2023-09-07T06:24:29;19.00;99.90
52867;DHT22;38739;53.324;6.862;2023-09-07T06:26:55;19.10;99.90
52867;DHT22;38739;53.324;6.862;2023-09-07T06:29:21;19.20;99.90
52867;DHT22;38739;53.324;6.862;2023-09-07T06:31:46;19.30;99.90
52867;DHT22;38739;53.324;6.862;2023-09-07T06:34:15;19.40;99.90
52867;DHT22;38739;53.324;6.862;2023-09-07T06:36:41;19.50;99.90
52867;DHT22;38739;53.324;6.862;2023-09-07T06:39:07;19.70;99.90
52867;DHT22;38739;53.324;6.862;2023-09-07T06:41:33;19.80;99.90
52867;DHT22;38739;53.324;6.862;2023-09-07T06:43:58;20.00;99.90
52867;DHT22;38739;53.324;6.862;2023-09-07T06:46:24;20.10;99.90
52867;DHT22;38739;53.324;6.862;2023-09-07T06:48:50;20.20;99.90
52867;DHT22;38739;53.324;6.862;2023-09-07T06:51:15;20.30;99.90
52867;DHT22;38739;53.324;6.862;2023-09-07T06:53:41;20.40;99.90
52867;DHT22;38739;53.324;6.862;2023-09-07T06:56:07;20.60;99.90
52867;DHT22;38739;53.324;6.862;2023-09-07T06:58:32;20.70;99.90
52867;DHT22;38739;53.324;6.862;2023-09-07T07:01:00;20.80;99.90
52867;DHT22;38739;53.324;6.862;2023-09-07T07:03:30;20.90;99.90
52867;DHT22;38739;53.324;6.862;2023-09-07T07:05:56;21.10;99.90
52867;DHT22;38739;53.324;6.862;2023-09-07T07:08:23;21.20;99.90
52867;DHT22;38739;53.324;6.862;2023-09-07T07:10:49;21.40;99.90
52867;DHT22;38739;53.324;6.862;2023-09-07T07:13:15;21.50;99.90
52867;DHT22;38739;53.324;6.862;2023-09-07T07:15:41;21.60;99.90
52867;DHT22;38739;53.324;6.862;2023-09-07T07:18:07;21.70;99.90
52867;DHT22;38739;53.324;6.862;2023-09-07T07:20:41;21.80;99.90
52867;DHT22;38739;53.324;6.862;2023-09-07T07:23:07;21.90;99.90
52867;DHT22;38739;53.324;6.862;2023-09-07T07:25:34;22.00;99.90
52867;DHT22;38739;53.324;6.862;2023-09-07T07:28:04;22.20;99.90
52867;DHT22;38739;53.324;6.862;2023-09-07T07:30:36;22.30;99.90
52867;DHT22;38739;53.324;6.862;2023-09-07T07:33:03;22.50;99.90
52867;DHT22;38739;53.324;6.862;2023-09-07T07:35:34;22.60;99.90
52867;DHT22;38739;53.324;6.862;2023-09-07T07:38:05;22.80;99.90
52867;DHT22;38739;53.324;6.862;2023-09-07T07:40:33;22.90;99.90
52867;DHT22;38739;53.324;6.862;2023-09-07T07:42:59;23.00;99.90
52867;DHT22;38739;53.324;6.862;2023-09-07T07:45:24;23.20;99.90
52867;DHT22;38739;53.324;6.862;2023-09-07T07:47:53;23.30;99.90
52867;DHT22;38739;53.324;6.862;2023-09-07T07:50:19;23.40;99.90
52867;DHT22;38739;53.324;6.862;2023-09-07T07:52:45;23.60;99.90
52867;DHT22;38739;53.324;6.862;2023-09-07T07:55:11;23.60;99.90
52867;DHT22;38739;53.324;6.862;2023-09-07T07:57:37;23.80;99.90
52867;DHT22;38739;53.324;6.862;2023-09-07T08:00:04;23.90;99.90
52867;DHT22;38739;53.324;6.862;2023-09-07T08:02:30;24.10;99.90
52867;DHT22;38739;53.324;6.862;2023-09-07T08:04:57;24.20;99.90
52867;DHT22;38739;53.324;6.862;2023-09-07T08:07:24;24.30;99.90
52867;DHT22;38739;53.324;6.862;2023-09-07T08:09:50;24.50;99.90
52867;DHT22;38739;53.324;6.862;2023-09-07T08:12:16;24.60;99.90
52867;DHT22;38739;53.324;6.862;2023-09-07T08:14:42;24.80;99.90
52867;DHT22;38739;53.324;6.862;2023-09-07T08:17:08;24.90;99.90
52867;DHT22;38739;53.324;6.862;2023-09-07T08:19:34;25.00;99.90
52867;DHT22;38739;53.324;6.862;2023-09-07T08:22:00;25.20;99.90
52867;DHT22;38739;53.324;6.862;2023-09-07T08:24:29;25.20;99.90
52867;DHT22;38739;53.324;6.862;2023-09-07T08:26:55;25.40;99.90
52867;DHT22;38739;53.324;6.862;2023-09-07T08:29:26;25.50;99.90
52867;DHT22;38739;53.324;6.862;2023-09-07T08:31:53;25.70;99.90
52867;DHT22;38739;53.324;6.862;2023-09-07T08:34:20;25.80;99.90
52867;DHT22;38739;53.324;6.862;2023-09-07T08:36:47;26.00;99.90
52867;DHT22;38739;53.324;6.862;2023-09-07T08:39:15;26.20;99.90
52867;DHT22;38739;53.324;6.862;2023-09-07T08:41:44;26.30;99.90
52867;DHT22;38739;53.324;6.862;2023-09-07T08:44:11;26.50;99.90
52867;DHT22;38739;53.324;6.862;2023-09-07T08:46:37;26.60;99.90
52867;DHT22;38739;53.324;6.862;2023-09-07T08:49:04;26.80;99.90
52867;DHT22;38739;53.324;6.862;2023-09-07T08:51:30;27.00;99.90
52867;DHT22;38739;53.324;6.862;2023-09-07T08:54:00;27.20;99.90
52867;DHT22;38739;53.324;6.862;2023-09-07T08:56:26;27.20;99.10
52867;DHT22;38739;53.324;6.862;2023-09-07T08:58:52;27.20;98.90
52867;DHT22;38739;53.324;6.862;2023-09-07T09:01:18;27.40;99.10
52867;DHT22;38739;53.324;6.862;2023-09-07T09:03:46;27.50;99.00
52867;DHT22;38739;53.324;6.862;2023-09-07T09:06:11;27.50;97.80
52867;DHT22;38739;53.324;6.862;2023-09-07T09:08:49;27.50;97.80
52867;DHT22;38739;53.324;6.862;2023-09-07T09:11:16;27.50;97.80
52867;DHT22;38739;53.324;6.862;2023-09-07T09:13:43;27.60;97.40
52867;DHT22;38739;53.324;6.862;2023-09-07T09:16:10;27.80;99.20
52867;DHT22;38739;53.324;6.862;2023-09-07T09:18:36;28.00;97.50
52867;DHT22;38739;53.324;6.862;2023-09-07T09:21:02;28.10;96.00
52867;DHT22;38739;53.324;6.862;2023-09-07T09:23:35;28.20;95.40
52867;DHT22;38739;53.324;6.862;2023-09-07T09:26:03;28.30;94.60
52867;DHT22;38739;53.324;6.862;2023-09-07T09:28:34;28.30;93.90
52867;DHT22;38739;53.324;6.862;2023-09-07T09:31:01;28.40;93.50
52867;DHT22;38739;53.324;6.862;2023-09-07T09:33:31;28.60;94.70
52867;DHT22;38739;53.324;6.862;2023-09-07T09:35:57;28.70;93.10
52867;DHT22;38739;53.324;6.862;2023-09-07T09:38:23;28.80;92.90
52867;DHT22;38739;53.324;6.862;2023-09-07T09:40:51;28.90;92.20
52867;DHT22;38739;53.324;6.862;2023-09-07T09:43:19;28.80;91.50
52867;DHT22;38739;53.324;6.862;2023-09-07T09:45:49;29.00;91.30
52867;DHT22;38739;53.324;6.862;2023-09-07T09:48:19;29.20;92.80
52867;DHT22;38739;53.324;6.862;2023-09-07T09:50:50;29.50;92.20
52867;DHT22;38739;53.324;6.862;2023-09-07T09:53:16;29.80;91.00
52867;DHT22;38739;53.324;6.862;2023-09-07T09:55:53;30.00;90.00
52867;DHT22;38739;53.324;6.862;2023-09-07T09:58:19;30.10;88.80
52867;DHT22;38739;53.324;6.862;2023-09-07T10:00:47;30.10;90.20
52867;DHT22;38739;53.324;6.862;2023-09-07T10:03:24;30.30;88.80
52867;DHT22;38739;53.324;6.862;2023-09-07T10:05:52;30.40;84.80
52867;DHT22;38739;53.324;6.862;2023-09-07T10:08:19;30.50;83.60
52867;DHT22;38739;53.324;6.862;2023-09-07T10:10:52;30.70;84.10
52867;DHT22;38739;53.324;6.862;2023-09-07T10:13:29;30.90;81.60
52867;DHT22;38739;53.324;6.862;2023-09-07T10:16:03;31.00;84.40
52867;DHT22;38739;53.324;6.862;2023-09-07T10:18:37;31.20;80.80
52867;DHT22;38739;53.324;6.862;2023-09-07T10:21:03;31.40;80.20
52867;DHT22;38739;53.324;6.862;2023-09-07T10:23:44;31.50;79.80
52867;DHT22;38739;53.324;6.862;2023-09-07T10:26:15;31.60;76.70
52867;DHT22;38739;53.324;6.862;2023-09-07T10:28:41;31.70;76.40
52867;DHT22;38739;53.324;6.862;2023-09-07T10:31:15;31.90;76.50
52867;DHT22;38739;53.324;6.862;2023-09-07T10:33:41;32.00;74.60
52867;DHT22;38739;53.324;6.862;2023-09-07T10:36:07;32.20;73.80
52867;DHT22;38739;53.324;6.862;2023-09-07T10:38:36;32.40;72.40
52867;DHT22;38739;53.324;6.862;2023-09-07T10:41:03;32.40;71.60
52867;DHT22;38739;53.324;6.862;2023-09-07T10:43:31;32.40;71.50
52867;DHT22;38739;53.324;6.862;2023-09-07T10:45:59;32.50;71.10
52867;DHT22;38739;53.324;6.862;2023-09-07T10:48:26;32.70;71.50
52867;DHT22;38739;53.324;6.862;2023-09-07T10:50:54;32.90;70.10
52867;DHT22;38739;53.324;6.862;2023-09-07T10:53:31;33.20;71.00
52867;DHT22;38739;53.324;6.862;2023-09-07T10:55:59;33.20;70.60
52867;DHT22;38739;53.324;6.862;2023-09-07T10:58:26;33.30;68.50
52867;DHT22;38739;53.324;6.862;2023-09-07T11:00:53;33.20;67.90
52867;DHT22;38739;53.324;6.862;2023-09-07T11:03:19;33.30;67.10
52867;DHT22;38739;53.324;6.862;2023-09-07T11:05:45;33.30;67.30
52867;DHT22;38739;53.324;6.862;2023-09-07T11:08:10;33.30;68.40
52867;DHT22;38739;53.324;6.862;2023-09-07T11:10:36;33.30;67.20
52867;DHT22;38739;53.324;6.862;2023-09-07T11:13:03;33.20;66.90
52867;DHT22;38739;53.324;6.862;2023-09-07T11:15:30;33.40;65.90
52867;DHT22;38739;53.324;6.862;2023-09-07T11:17:57;33.50;67.10
52867;DHT22;38739;53.324;6.862;2023-09-07T11:20:23;33.80;66.90
52867;DHT22;38739;53.324;6.862;2023-09-07T11:22:50;34.00;65.80
52867;DHT22;38739;53.324;6.862;2023-09-07T11:25:16;34.30;65.10
52867;DHT22;38739;53.324;6.862;2023-09-07T11:27:44;34.60;64.60
52867;DHT22;38739;53.324;6.862;2023-09-07T11:30:10;34.70;65.90
52867;DHT22;38739;53.324;6.862;2023-09-07T11:32:37;34.60;64.20
52867;DHT22;38739;53.324;6.862;2023-09-07T11:35:04;34.80;64.10
52867;DHT22;38739;53.324;6.862;2023-09-07T11:37:33;35.00;62.80
52867;DHT22;38739;53.324;6.862;2023-09-07T11:39:58;35.20;62.80
52867;DHT22;38739;53.324;6.862;2023-09-07T11:42:24;35.20;62.20
52867;DHT22;38739;53.324;6.862;2023-09-07T11:44:50;35.00;62.30
52867;DHT22;38739;53.324;6.862;2023-09-07T11:47:15;35.30;64.20
52867;DHT22;38739;53.324;6.862;2023-09-07T11:49:41;35.70;62.00
52867;DHT22;38739;53.324;6.862;2023-09-07T11:52:07;36.00;64.40
52867;DHT22;38739;53.324;6.862;2023-09-07T11:54:33;36.30;63.10
52867;DHT22;38739;53.324;6.862;2023-09-07T11:56:58;36.10;60.00
52867;DHT22;38739;53.324;6.862;2023-09-07T11:59:24;36.40;59.40
52867;DHT22;38739;53.324;6.862;2023-09-07T12:01:50;36.40;59.00
52867;DHT22;38739;53.324;6.862;2023-09-07T12:04:16;36.20;58.80
52867;DHT22;38739;53.324;6.862;2023-09-07T12:06:42;36.20;59.90
52867;DHT22;38739;53.324;6.862;2023-09-07T12:09:07;36.30;60.20
52867;DHT22;38739;53.324;6.862;2023-09-07T12:11:35;36.40;59.10
52867;DHT22;38739;53.324;6.862;2023-09-07T12:14:01;36.80;58.20
52867;DHT22;38739;53.324;6.862;2023-09-07T12:16:27;36.80;60.10
52867;DHT22;38739;53.324;6.862;2023-09-07T12:18:54;37.00;58.10
52867;DHT22;38739;53.324;6.862;2023-09-07T12:21:20;36.90;57.50
52867;DHT22;38739;53.324;6.862;2023-09-07T12:23:46;37.00;57.20
52867;DHT22;38739;53.324;6.862;2023-09-07T12:26:14;37.30;57.60
52867;DHT22;38739;53.324;6.862;2023-09-07T12:28:42;37.10;55.50
52867;DHT22;38739;53.324;6.862;2023-09-07T12:31:08;37.20;55.80
52867;DHT22;38739;53.324;6.862;2023-09-07T12:33:33;37.40;56.70
52867;DHT22;38739;53.324;6.862;2023-09-07T12:35:59;37.20;55.70
52867;DHT22;38739;53.324;6.862;2023-09-07T12:38:25;37.30;56.40
52867;DHT22;38739;53.324;6.862;2023-09-07T12:40:53;37.50;56.00
52867;DHT22;38739;53.324;6.862;2023-09-07T12:43:18;37.60;55.60
52867;DHT22;38739;53.324;6.862;2023-09-07T12:45:45;37.50;55.30
52867;DHT22;38739;53.324;6.862;2023-09-07T12:48:11;37.50;55.10
52867;DHT22;38739;53.324;6.862;2023-09-07T12:50:37;37.70;55.90
52867;DHT22;38739;53.324;6.862;2023-09-07T12:53:02;37.70;55.90
52867;DHT22;38739;53.324;6.862;2023-09-07T12:55:28;37.70;55.40
52867;DHT22;38739;53.324;6.862;2023-09-07T12:57:55;38.00;55.20
52867;DHT22;38739;53.324;6.862;2023-09-07T13:00:21;38.00;54.90
52867;DHT22;38739;53.324;6.862;2023-09-07T13:02:47;38.40;56.00
52867;DHT22;38739;53.324;6.862;2023-09-07T13:05:12;38.40;54.90
52867;DHT22;38739;53.324;6.862;2023-09-07T13:07:38;38.50;54.40
52867;DHT22;38739;53.324;6.862;2023-09-07T13:10:06;38.60;55.40
52867;DHT22;38739;53.324;6.862;2023-09-07T13:12:32;39.00;55.30
52867;DHT22;38739;53.324;6.862;2023-09-07T13:15:00;39.20;54.00
52867;DHT22;38739;53.324;6.862;2023-09-07T13:17:26;38.90;53.00
52867;DHT22;38739;53.324;6.862;2023-09-07T13:19:51;38.80;53.30
52867;DHT22;38739;53.324;6.862;2023-09-07T13:22:17;38.70;54.10
52867;DHT22;38739;53.324;6.862;2023-09-07T13:24:43;38.70;53.60
52867;DHT22;38739;53.324;6.862;2023-09-07T13:27:09;38.90;53.90
52867;DHT22;38739;53.324;6.862;2023-09-07T13:29:36;39.00;53.40
52867;DHT22;38739;53.324;6.862;2023-09-07T13:32:02;39.10;53.00
52867;DHT22;38739;53.324;6.862;2023-09-07T13:34:28;39.00;53.80
52867;DHT22;38739;53.324;6.862;2023-09-07T13:36:54;39.00;53.10
52867;DHT22;38739;53.324;6.862;2023-09-07T13:39:20;39.00;53.00
52867;DHT22;38739;53.324;6.862;2023-09-07T13:41:46;38.80;52.80
52867;DHT22;38739;53.324;6.862;2023-09-07T13:44:14;38.80;53.20
52867;DHT22;38739;53.324;6.862;2023-09-07T13:46:40;38.60;52.90
52867;DHT22;38739;53.324;6.862;2023-09-07T13:49:05;38.60;53.20
52867;DHT22;38739;53.324;6.862;2023-09-07T13:51:31;38.60;53.60
52867;DHT22;38739;53.324;6.862;2023-09-07T13:54:04;38.80;54.20
52867;DHT22;38739;53.324;6.862;2023-09-07T13:56:31;39.10;54.60
52867;DHT22;38739;53.324;6.862;2023-09-07T13:58:56;39.10;52.20
52867;DHT22;38739;53.324;6.862;2023-09-07T14:01:22;39.00;52.80
52867;DHT22;38739;53.324;6.862;2023-09-07T14:03:49;39.20;53.30
52867;DHT22;38739;53.324;6.862;2023-09-07T14:06:15;39.20;54.10
52867;DHT22;38739;53.324;6.862;2023-09-07T14:08:43;39.40;54.10
52867;DHT22;38739;53.324;6.862;2023-09-07T14:11:09;39.30;53.80
52867;DHT22;38739;53.324;6.862;2023-09-07T14:13:35;39.50;53.80
52867;DHT22;38739;53.324;6.862;2023-09-07T14:16:01;39.60;53.30
52867;DHT22;38739;53.324;6.862;2023-09-07T14:18:27;39.60;53.40
52867;DHT22;38739;53.324;6.862;2023-09-07T14:20:53;39.50;52.60
52867;DHT22;38739;53.324;6.862;2023-09-07T14:23:23;39.50;53.00
52867;DHT22;38739;53.324;6.862;2023-09-07T14:25:51;39.20;53.20
52867;DHT22;38739;53.324;6.862;2023-09-07T14:28:17;39.10;53.20
52867;DHT22;38739;53.324;6.862;2023-09-07T14:30:43;39.20;54.20
52867;DHT22;38739;53.324;6.862;2023-09-07T14:33:08;39.40;53.90
52867;DHT22;38739;53.324;6.862;2023-09-07T14:35:34;39.30;53.30
52867;DHT22;38739;53.324;6.862;2023-09-07T14:38:00;39.30;53.20
52867;DHT22;38739;53.324;6.862;2023-09-07T14:40:26;39.30;52.80
52867;DHT22;38739;53.324;6.862;2023-09-07T14:42:52;38.90;52.10
52867;DHT22;38739;53.324;6.862;2023-09-07T14:45:19;38.30;52.50
52867;DHT22;38739;53.324;6.862;2023-09-07T14:47:45;38.30;53.70
52867;DHT22;38739;53.324;6.862;2023-09-07T14:50:11;38.10;53.20
52867;DHT22;38739;53.324;6.862;2023-09-07T14:52:37;37.90;53.10
52867;DHT22;38739;53.324;6.862;2023-09-07T14:55:09;37.70;52.90
52867;DHT22;38739;53.324;6.862;2023-09-07T14:57:35;37.90;54.00
52867;DHT22;38739;53.324;6.862;2023-09-07T15:00:01;38.00;54.10
52867;DHT22;38739;53.324;6.862;2023-09-07T15:02:27;38.10;53.70
52867;DHT22;38739;53.324;6.862;2023-09-07T15:04:53;38.30;54.00
52867;DHT22;38739;53.324;6.862;2023-09-07T15:07:19;38.30;53.10
52867;DHT22;38739;53.324;6.862;2023-09-07T15:09:45;38.20;53.30
52867;DHT22;38739;53.324;6.862;2023-09-07T15:12:11;37.80;52.90
52867;DHT22;38739;53.324;6.862;2023-09-07T15:14:37;37.60;53.10
52867;DHT22;38739;53.324;6.862;2023-09-07T15:17:03;37.20;53.60
52867;DHT22;38739;53.324;6.862;2023-09-07T15:19:28;37.10;53.70
52867;DHT22;38739;53.324;6.862;2023-09-07T15:21:55;37.20;54.10
52867;DHT22;38739;53.324;6.862;2023-09-07T15:24:21;36.80;54.50
52867;DHT22;38739;53.324;6.862;2023-09-07T15:26:47;36.50;54.40